createdAt,value
2019-04-05T00:01:09.281Z,46.20
2019-04-05T00:03:38.336Z,46.20
2019-04-05T00:06:07.388Z,46.20
2019-04-05T00:08:36.448Z,46.20
2019-04-05T00:11:05.566Z,46.30
2019-04-05T00:13:34.626Z,46.20
2019-04-05T00:16:03.740Z,46.80
2019-04-05T00:18:32.796Z,46.10
2019-04-05T00:21:01.846Z,46.10
2019-04-05T00:23:30.966Z,46.10
2019-04-05T00:26:00.096Z,46.80
2019-04-05T00:28:29.169Z,46.00
2019-04-05T00:30:58.200Z,46.00
2019-04-05T00:33:27.261Z,46.10
2019-04-05T00:35:56.367Z,46.00
2019-04-05T00:38:25.604Z,46.00
2019-04-05T00:40:54.653Z,46.00
2019-04-05T00:43:23.713Z,46.10
2019-04-05T00:45:52.728Z,46.00
2019-04-05T00:48:21.760Z,45.90
2019-04-05T00:50:50.729Z,46.00
2019-04-05T00:53:19.808Z,46.00
2019-04-05T00:55:49.322Z,46.00
2019-04-05T00:58:18.374Z,45.90
2019-04-05T01:00:47.432Z,45.90
2019-04-05T01:03:16.515Z,46.00
2019-04-05T01:05:45.580Z,45.90
2019-04-05T01:08:14.675Z,45.90
2019-04-05T01:10:43.720Z,45.90
2019-04-05T01:13:12.769Z,46.00
2019-04-05T01:15:41.871Z,45.80
2019-04-05T01:18:11.371Z,45.80
2019-04-05T01:20:42.558Z,45.90
2019-04-05T01:23:12.332Z,45.90
2019-04-05T01:25:41.404Z,45.90
2019-04-05T01:28:10.653Z,45.80
2019-04-05T01:30:39.713Z,45.90
2019-04-05T01:33:08.957Z,45.90
2019-04-05T01:35:38.033Z,46.00
2019-04-05T01:38:07.137Z,46.10
2019-04-05T01:40:39.248Z,46.00
2019-04-05T01:43:09.201Z,46.00
2019-04-05T01:45:38.256Z,46.00
2019-04-05T01:48:07.310Z,46.10
2019-04-05T01:50:36.480Z,46.10
2019-04-05T01:53:05.520Z,46.20
2019-04-05T01:55:34.577Z,46.10
2019-04-05T01:58:03.617Z,46.10
2019-04-05T02:00:32.672Z,46.20
2019-04-05T02:03:01.712Z,46.20
2019-04-05T02:05:30.779Z,46.20
2019-04-05T02:07:59.812Z,46.20
2019-04-05T02:10:28.969Z,46.30
2019-04-05T02:12:58.448Z,46.30
2019-04-05T02:15:28.957Z,46.20
2019-04-05T02:17:58.430Z,46.30
2019-04-05T02:20:27.922Z,46.20
2019-04-05T02:22:57.060Z,46.30
2019-04-05T02:25:26.334Z,46.20
2019-04-05T02:27:55.870Z,46.30
2019-04-05T02:30:25.825Z,46.30
2019-04-05T02:32:54.889Z,46.40
2019-04-05T02:35:23.965Z,46.40
2019-04-05T02:37:52.991Z,46.30
2019-04-05T02:40:24.313Z,46.30
2019-04-05T02:42:55.427Z,46.40
2019-04-05T02:45:25.483Z,46.40
2019-04-05T02:47:58.297Z,46.40
2019-04-05T02:50:30.481Z,47.10
2019-04-05T02:53:02.662Z,46.40
2019-04-05T02:55:32.557Z,46.40
2019-04-05T02:58:03.411Z,46.40
2019-04-05T03:00:33.817Z,46.40
2019-04-05T03:03:05.476Z,46.40
2019-04-05T03:05:35.463Z,46.40
2019-04-05T03:08:04.966Z,46.40
2019-04-05T03:11:03.349Z,46.30
2019-04-05T03:13:49.069Z,46.40
2019-04-05T03:16:38.599Z,46.40
2019-04-05T03:19:04.451Z,46.40
2019-04-05T03:21:35.465Z,46.40
2019-04-05T03:24:05.775Z,46.50
2019-04-05T03:26:38.592Z,46.60
2019-04-05T03:29:10.035Z,46.60
2019-04-05T03:31:39.611Z,47.20
2019-04-05T03:34:08.811Z,47.50
2019-04-05T03:36:39.591Z,47.50
2019-04-05T03:39:08.914Z,47.50
2019-04-05T03:41:38.472Z,47.40
2019-04-05T03:44:08.443Z,47.70
2019-04-05T03:46:37.896Z,47.60
2019-04-05T03:49:06.983Z,47.60
2019-04-05T03:51:36.506Z,47.70
2019-04-05T03:54:06.170Z,47.70
2019-04-05T03:56:37.963Z,47.70
2019-04-05T03:59:06.698Z,47.70
2019-04-05T04:01:35.968Z,47.70
2019-04-05T04:04:05.197Z,47.70
2019-04-05T04:06:34.567Z,47.60
2019-04-05T04:09:04.576Z,47.60
2019-04-05T04:11:33.967Z,47.60
2019-04-05T04:14:03.088Z,47.50
2019-04-05T04:16:32.440Z,47.50
2019-04-05T04:19:01.486Z,47.50
2019-04-05T04:22:11.130Z,47.40
2019-04-05T04:24:40.203Z,47.40
2019-04-05T04:27:09.474Z,47.40
2019-04-05T04:29:38.626Z,47.40
2019-04-05T04:32:08.118Z,47.30
2019-04-05T04:34:37.458Z,47.40
2019-04-05T04:37:06.528Z,47.30
2019-04-05T04:39:35.701Z,47.30
2019-04-05T04:42:05.185Z,47.30
2019-04-05T04:44:34.335Z,47.20
2019-04-05T04:47:03.542Z,47.20
2019-04-05T04:49:33.345Z,47.30
2019-04-05T04:52:02.720Z,47.20
2019-04-05T04:54:32.266Z,47.90
2019-04-05T04:57:01.732Z,47.20
2019-04-05T04:59:30.801Z,47.20
2019-04-05T05:01:59.861Z,47.50
2019-04-05T05:04:29.404Z,47.10
2019-04-05T05:06:58.476Z,47.10
2019-04-05T05:09:28.230Z,47.00
2019-04-05T05:11:57.492Z,47.00
2019-04-05T05:14:27.236Z,47.60
2019-04-05T05:16:56.484Z,47.00
2019-04-05T05:19:25.549Z,47.10
2019-04-05T05:21:54.600Z,47.00
2019-04-05T05:24:23.743Z,47.00
2019-04-05T05:26:53.013Z,46.90
2019-04-05T05:29:22.572Z,47.00
2019-04-05T05:31:51.809Z,47.00
2019-04-05T05:34:21.360Z,46.90
2019-04-05T05:36:50.413Z,46.90
2019-04-05T05:39:19.817Z,46.90
2019-04-05T05:41:48.902Z,46.90
2019-04-05T05:44:17.982Z,46.90
2019-04-05T05:46:47.045Z,46.90
2019-04-05T05:49:16.105Z,46.80
2019-04-05T05:51:46.979Z,46.80
2019-04-05T05:54:16.017Z,47.50
2019-04-05T05:56:45.083Z,46.80
2019-04-05T05:59:14.137Z,47.50
2019-04-05T06:01:43.204Z,46.80
2019-04-05T06:04:12.854Z,46.80
2019-04-05T06:06:42.105Z,46.90
2019-04-05T06:09:11.148Z,46.80
2019-04-05T06:11:40.222Z,46.80
2019-04-05T06:14:09.271Z,46.80
2019-04-05T06:16:46.263Z,46.70
2019-04-05T06:19:09.170Z,46.70
2019-04-05T06:21:38.218Z,46.70
2019-04-05T06:24:07.286Z,46.70
2019-04-05T06:26:36.330Z,46.70
2019-04-05T06:29:05.532Z,46.70
2019-04-05T06:31:34.682Z,46.60
2019-04-05T06:34:03.766Z,46.70
2019-04-05T06:36:33.081Z,46.60
2019-04-05T06:39:02.201Z,46.60
2019-04-05T06:41:31.255Z,46.70
2019-04-05T06:44:00.321Z,46.60
2019-04-05T06:46:29.392Z,46.60
2019-04-05T06:48:58.449Z,46.50
2019-04-05T06:51:27.521Z,46.50
2019-04-05T06:53:56.561Z,46.60
2019-04-05T06:56:25.625Z,46.50
2019-04-05T06:58:54.672Z,46.50
2019-04-05T07:01:23.728Z,46.60
2019-04-05T07:03:55.162Z,46.50
2019-04-05T07:06:23.568Z,47.20
2019-04-05T07:08:54.054Z,46.50
2019-04-05T07:11:23.345Z,46.50
2019-04-05T07:13:52.381Z,46.50
2019-04-05T07:16:21.449Z,46.50
2019-04-05T07:18:50.501Z,46.50
2019-04-05T07:21:19.554Z,46.60
2019-04-05T07:23:48.624Z,46.50
2019-04-05T07:26:19.603Z,46.50
2019-04-05T07:28:48.475Z,46.70
2019-04-05T07:31:17.525Z,46.50
2019-04-05T07:33:46.589Z,46.50
2019-04-05T07:36:15.784Z,46.40
2019-04-05T07:38:44.857Z,46.40
2019-04-05T07:41:13.912Z,46.40
2019-04-05T07:43:42.977Z,46.40
2019-04-05T07:46:12.028Z,46.40
2019-04-05T07:48:45.176Z,46.30
2019-04-05T07:51:11.605Z,46.40
2019-04-05T07:53:40.689Z,46.30
2019-04-05T07:56:09.741Z,46.30
2019-04-05T07:58:38.805Z,46.30
2019-04-05T08:01:07.844Z,46.30
2019-04-05T08:03:36.896Z,46.30
2019-04-05T08:06:05.941Z,46.30
2019-04-05T08:09:02.175Z,46.40
2019-04-05T08:11:30.885Z,46.30
2019-04-05T08:14:01.979Z,46.30
2019-04-05T08:16:31.056Z,46.30
2019-04-05T08:19:00.101Z,46.30
2019-04-05T08:21:29.150Z,46.30
2019-04-05T08:23:58.248Z,46.30
2019-04-05T08:26:27.347Z,46.30
2019-04-05T08:28:56.395Z,46.30
2019-04-05T08:31:25.460Z,46.30
2019-04-05T08:33:54.573Z,46.20
2019-04-05T08:36:23.640Z,46.20
2019-04-05T08:38:52.690Z,46.30
2019-04-05T08:41:21.753Z,46.20
2019-04-05T08:43:50.821Z,46.20
2019-04-05T08:46:19.900Z,46.20
2019-04-05T08:48:48.949Z,46.20
2019-04-05T08:51:18.013Z,46.20
2019-04-05T08:53:47.059Z,46.10
2019-04-05T08:56:16.171Z,46.10
2019-04-05T08:58:45.264Z,46.10
2019-04-05T09:01:14.372Z,46.10
2019-04-05T09:03:43.463Z,46.10
2019-04-05T09:06:12.637Z,46.10
2019-04-05T09:08:41.694Z,46.10
2019-04-05T09:11:10.764Z,46.00
2019-04-05T09:13:39.820Z,46.00
2019-04-05T09:16:11.626Z,46.00
2019-04-05T09:18:39.673Z,46.00
2019-04-05T09:21:10.103Z,46.70
2019-04-05T09:23:39.388Z,46.00
2019-04-05T09:26:08.455Z,46.00
2019-04-05T09:28:37.496Z,46.00
2019-04-05T09:31:06.621Z,46.70
2019-04-05T09:33:35.680Z,46.00
2019-04-05T09:36:04.836Z,46.00
2019-04-05T09:38:34.154Z,46.00
2019-04-05T09:41:03.265Z,46.00
2019-04-05T09:43:32.343Z,46.10
2019-04-05T09:46:01.392Z,46.70
2019-04-05T09:48:30.465Z,46.00
2019-04-05T09:50:59.519Z,46.00
2019-04-05T09:53:28.632Z,46.00
2019-04-05T09:55:57.669Z,46.00
2019-04-05T09:58:26.732Z,46.00
2019-04-05T10:00:55.794Z,46.10
2019-04-05T10:03:24.867Z,46.00
2019-04-05T10:05:54.333Z,46.00
2019-04-05T10:08:23.469Z,46.00
2019-04-05T10:10:52.604Z,46.00
2019-04-05T10:13:21.674Z,46.00
2019-04-05T10:15:50.709Z,46.00
2019-04-05T10:18:19.784Z,46.00
2019-04-05T10:20:48.844Z,46.00
2019-04-05T10:23:17.884Z,46.00
2019-04-05T10:25:46.954Z,46.00
2019-04-05T10:28:16.011Z,46.00
2019-04-05T10:30:45.085Z,46.00
2019-04-05T10:33:14.134Z,46.00
2019-04-05T10:35:43.196Z,46.00
2019-04-05T10:38:12.245Z,46.00
2019-04-05T10:40:41.381Z,46.00
2019-04-05T10:43:10.439Z,46.00
2019-04-05T10:45:39.496Z,46.00
2019-04-05T10:48:08.549Z,46.00
2019-04-05T10:50:37.693Z,46.00
2019-04-05T10:53:06.736Z,46.00
2019-04-05T10:55:35.876Z,45.90
2019-04-05T10:58:05.214Z,46.00
2019-04-05T11:00:34.402Z,45.90
2019-04-05T11:03:03.464Z,46.60
2019-04-05T11:05:32.621Z,45.90
2019-04-05T11:08:01.678Z,45.90
2019-04-05T11:10:30.749Z,46.00
2019-04-05T11:12:59.792Z,45.90
2019-04-05T11:15:31.053Z,46.00
2019-04-05T11:17:59.768Z,46.00
2019-04-05T11:20:28.824Z,46.00
2019-04-05T11:22:57.894Z,45.90
2019-04-05T11:25:26.953Z,46.00
2019-04-05T11:27:56.019Z,45.90
2019-04-05T11:30:47.283Z,45.90
2019-04-05T11:33:19.492Z,45.90
2019-04-05T11:35:47.435Z,45.90
2019-04-05T11:38:17.770Z,46.00
2019-04-05T11:40:47.149Z,45.90
2019-04-05T11:43:16.727Z,46.70
2019-04-05T11:45:46.007Z,45.90
2019-04-05T11:48:15.016Z,45.90
2019-04-05T11:50:44.179Z,45.90
2019-04-05T11:53:13.204Z,45.90
2019-04-05T11:55:42.271Z,45.90
2019-04-05T11:58:11.318Z,45.80
2019-04-05T12:00:46.247Z,45.80
2019-04-05T12:03:15.405Z,45.80
2019-04-05T12:05:44.456Z,45.80
2019-04-05T12:08:13.501Z,45.80
2019-04-05T12:10:42.564Z,45.90
2019-04-05T12:13:11.633Z,45.80
2019-04-05T12:15:40.673Z,45.80
2019-04-05T12:18:09.726Z,45.80
2019-04-05T12:20:49.235Z,45.80
2019-04-05T12:23:09.648Z,45.90
2019-04-05T12:25:38.703Z,45.90
2019-04-05T12:28:10.630Z,45.80
2019-04-05T12:30:39.673Z,45.80
2019-04-05T12:33:14.139Z,45.90
2019-04-05T12:35:39.513Z,45.80
2019-04-05T12:38:08.582Z,45.80
2019-04-05T12:40:38.456Z,45.80
2019-04-05T12:43:08.401Z,45.80
2019-04-05T12:45:37.474Z,45.90
2019-04-05T12:48:06.601Z,45.80
2019-04-05T12:50:35.706Z,46.50
2019-04-05T12:53:04.753Z,45.80
2019-04-05T12:55:33.852Z,45.70
2019-04-05T12:58:02.918Z,45.80
2019-04-05T13:00:31.986Z,45.80
2019-04-05T13:03:01.049Z,45.80
2019-04-05T13:05:30.134Z,45.80
2019-04-05T13:07:59.172Z,45.80
2019-04-05T13:10:30.340Z,45.80
2019-04-05T13:12:59.157Z,45.80
2019-04-05T13:15:28.271Z,45.70
2019-04-05T13:18:00.406Z,45.80
2019-04-05T13:20:30.224Z,45.80
2019-04-05T13:23:02.168Z,45.80
2019-04-05T13:25:29.639Z,45.80
2019-04-05T13:27:58.715Z,45.80
2019-04-05T13:30:27.749Z,45.80
2019-04-05T13:32:56.828Z,45.80
2019-04-05T13:35:25.881Z,46.40
2019-04-05T13:37:55.012Z,45.80
2019-04-05T13:40:24.157Z,45.90
2019-04-05T13:42:53.201Z,45.80
2019-04-05T13:45:22.269Z,45.80
2019-04-05T13:47:51.292Z,45.80
2019-04-05T13:50:20.329Z,45.70
2019-04-05T13:52:49.353Z,45.80
2019-04-05T13:55:18.396Z,45.80
2019-04-05T13:57:47.454Z,45.80
2019-04-05T14:00:18.346Z,45.80
2019-04-05T14:02:49.977Z,45.70
2019-04-05T14:05:18.272Z,45.70
2019-04-05T14:07:47.308Z,45.80
2019-04-05T14:10:16.396Z,45.80
2019-04-05T14:12:45.449Z,45.80
2019-04-05T14:15:14.510Z,45.80
2019-04-05T14:17:44.763Z,45.80
2019-04-05T14:20:14.302Z,45.70
2019-04-05T14:22:43.355Z,45.80
2019-04-05T14:25:13.106Z,45.70
2019-04-05T14:27:42.160Z,46.40
2019-04-05T14:30:13.678Z,45.60
2019-04-05T14:32:42.602Z,45.70
2019-04-05T14:35:11.733Z,45.70
2019-04-05T14:37:40.789Z,45.70
2019-04-05T14:40:10.344Z,45.70
2019-04-05T14:42:39.408Z,45.70
2019-04-05T14:45:08.847Z,45.70
2019-04-05T14:47:37.889Z,45.70
2019-04-05T14:50:07.319Z,45.70
2019-04-05T14:52:36.362Z,45.60
2019-04-05T14:55:05.643Z,45.60
2019-04-05T14:57:36.425Z,45.70
2019-04-05T15:00:06.656Z,45.70
2019-04-05T15:02:35.702Z,45.60
2019-04-05T15:05:05.574Z,45.60
2019-04-05T15:07:37.519Z,45.60
2019-04-05T15:10:06.881Z,45.60
2019-04-05T15:12:35.932Z,45.60
2019-04-05T15:15:05.619Z,45.60
2019-04-05T15:17:46.863Z,45.60
2019-04-05T15:20:06.289Z,46.00
2019-04-05T15:22:35.358Z,45.60
2019-04-05T15:25:05.134Z,45.60
2019-04-05T15:27:34.359Z,45.70
2019-04-05T15:30:03.413Z,45.60
2019-04-05T15:32:33.400Z,45.60
2019-04-05T15:35:02.522Z,45.60
2019-04-05T15:37:32.476Z,45.60
2019-04-05T15:40:01.806Z,45.60
2019-04-05T15:42:30.877Z,45.60
2019-04-05T15:44:59.917Z,45.60
2019-04-05T15:47:31.713Z,45.60
2019-04-05T15:49:59.759Z,45.50
2019-04-05T15:52:31.865Z,45.60
2019-04-05T15:54:59.588Z,45.60
2019-04-05T15:57:28.620Z,46.00
2019-04-05T15:59:57.753Z,45.50
2019-04-05T16:02:26.791Z,45.50
2019-04-05T16:04:55.844Z,45.50
2019-04-05T16:07:24.963Z,45.60
2019-04-05T16:09:54.045Z,45.50
2019-04-05T16:12:23.124Z,45.50
2019-04-05T16:14:52.136Z,45.50
2019-04-05T16:17:21.202Z,45.50
2019-04-05T16:19:50.289Z,45.50
2019-04-05T16:22:30.877Z,45.50
2019-04-05T16:24:50.224Z,45.60
2019-04-05T16:27:19.286Z,45.50
2019-04-05T16:29:48.352Z,45.50
2019-04-05T16:32:17.411Z,45.60
2019-04-05T16:34:46.457Z,45.50
2019-04-05T16:37:15.527Z,45.50
2019-04-05T16:39:44.588Z,45.60
2019-04-05T16:42:13.650Z,45.50
2019-04-05T16:44:42.688Z,45.50
2019-04-05T16:47:11.777Z,45.50
2019-04-05T16:49:40.831Z,45.50
2019-04-05T16:52:09.893Z,45.50
2019-04-05T16:54:38.968Z,45.60
2019-04-05T16:57:08.050Z,45.50
2019-04-05T16:59:37.094Z,45.50
2019-04-05T17:02:06.177Z,45.40
2019-04-05T17:04:35.225Z,45.50
2019-04-05T17:07:04.311Z,45.50
2019-04-05T17:09:33.366Z,45.50
2019-04-05T17:12:02.416Z,45.50
2019-04-05T17:14:31.536Z,46.10
2019-04-05T17:17:00.593Z,45.50
2019-04-05T17:19:29.636Z,45.50
2019-04-05T17:21:58.696Z,45.50
2019-04-05T17:24:27.755Z,45.50
2019-04-05T17:26:56.822Z,45.40
2019-04-05T17:29:25.877Z,45.40
2019-04-05T17:31:54.997Z,45.50
2019-04-05T17:34:24.033Z,45.50
2019-04-05T17:36:53.150Z,45.40
2019-04-05T17:39:22.212Z,45.40
2019-04-05T17:41:51.270Z,45.40
2019-04-05T17:44:20.317Z,45.40
2019-04-05T17:46:49.385Z,45.40
2019-04-05T17:49:18.429Z,45.40
2019-04-05T17:51:47.509Z,45.40
2019-04-05T17:54:16.540Z,45.40
2019-04-05T17:56:46.000Z,45.40
2019-04-05T17:59:15.338Z,45.40
2019-04-05T18:01:44.393Z,45.40
2019-04-05T18:04:13.465Z,45.40
2019-04-05T18:06:42.531Z,45.40
2019-04-05T18:09:11.582Z,45.40
2019-04-05T18:11:40.650Z,45.50
2019-04-05T18:14:09.688Z,45.40
2019-04-05T18:16:38.807Z,46.00
2019-04-05T18:19:07.851Z,45.40
2019-04-05T18:21:36.984Z,46.00
2019-04-05T18:24:06.024Z,45.40
2019-04-05T18:26:35.060Z,45.40
2019-04-05T18:29:04.438Z,45.40
2019-04-05T18:31:33.464Z,45.40
2019-04-05T18:34:02.525Z,45.40
2019-04-05T18:36:31.561Z,45.40
2019-04-05T18:39:00.616Z,45.40
2019-04-05T18:41:29.654Z,45.60
2019-04-05T18:43:58.708Z,45.70
2019-04-05T18:46:28.662Z,45.70
2019-04-05T18:48:57.733Z,45.80
2019-04-05T18:51:26.778Z,45.80
2019-04-05T18:53:55.823Z,45.80
2019-04-05T18:56:24.857Z,45.80
2019-04-05T18:58:53.992Z,45.80
2019-04-05T19:01:23.037Z,45.80
2019-04-05T19:03:52.147Z,45.80
2019-04-05T19:06:21.163Z,45.80
2019-04-05T19:08:50.244Z,45.80
2019-04-05T19:11:19.290Z,45.80
2019-04-05T19:14:00.573Z,45.80
2019-04-05T19:16:19.070Z,45.90
2019-04-05T19:18:48.109Z,46.00
2019-04-05T19:21:17.144Z,45.90
2019-04-05T19:23:51.142Z,46.00
2019-04-05T19:26:17.069Z,46.00
2019-04-05T19:28:46.174Z,46.10
2019-04-05T19:48:50.826Z,47.30
2019-04-05T19:51:19.896Z,47.00
2019-04-05T19:53:49.573Z,46.90
2019-04-05T19:56:19.231Z,46.80
2019-04-05T19:58:48.836Z,46.70
2019-04-05T20:01:18.737Z,46.70
2019-04-05T20:03:48.575Z,46.60
2019-04-05T20:06:18.309Z,46.60
2019-04-05T20:08:48.025Z,46.60
2019-04-05T20:11:18.117Z,46.70
2019-04-05T20:13:47.761Z,46.70
2019-04-05T20:16:17.340Z,46.80
2019-04-05T20:18:47.074Z,46.80
2019-04-05T20:21:16.740Z,46.80
2019-04-05T20:23:47.639Z,46.80
2019-04-05T20:26:17.722Z,46.70
2019-04-05T20:28:47.117Z,46.60
2019-04-05T20:31:16.819Z,46.70
2019-04-05T20:33:46.384Z,46.60
2019-04-05T20:36:16.069Z,46.50
2019-04-05T20:38:45.699Z,46.50
2019-04-05T20:41:15.287Z,46.50
2019-04-05T20:43:44.731Z,46.50
2019-04-05T20:46:13.839Z,46.50
2019-04-05T20:48:42.877Z,46.50
2019-04-05T20:51:11.915Z,46.70
2019-04-05T20:53:40.979Z,46.60
2019-04-05T20:56:10.915Z,46.50
2019-04-05T20:58:39.980Z,46.40
2019-04-05T21:01:09.034Z,46.40
2019-04-05T21:03:38.097Z,46.30
2019-04-05T21:06:07.162Z,46.20
2019-04-05T21:08:36.234Z,46.20
2019-04-05T21:11:05.313Z,46.10
2019-04-05T21:13:34.492Z,46.10
2019-04-05T21:16:03.617Z,46.10
2019-04-05T21:18:32.671Z,46.10
2019-04-05T21:21:01.743Z,45.90
2019-04-05T21:23:30.797Z,45.90
2019-04-05T21:25:59.905Z,45.80
2019-04-05T21:28:28.949Z,45.80
2019-04-05T21:30:58.017Z,45.70
2019-04-05T21:33:27.073Z,45.80
2019-04-05T21:35:56.143Z,45.70
2019-04-05T21:38:25.173Z,45.70
2019-04-05T21:40:54.249Z,45.60
2019-04-05T21:43:23.313Z,45.50
2019-04-05T21:45:52.403Z,45.50
2019-04-05T21:48:21.494Z,45.60
2019-04-05T21:50:50.653Z,45.50
2019-04-05T21:53:19.771Z,45.50
2019-04-05T21:55:48.904Z,45.50
2019-04-05T21:58:17.957Z,45.50
2019-04-05T22:01:02.051Z,45.50
2019-04-05T22:03:32.056Z,45.50
2019-04-05T22:06:01.677Z,45.30
2019-04-05T22:08:31.847Z,45.30
2019-04-05T22:11:01.711Z,45.30
2019-04-05T22:13:30.812Z,45.40
2019-04-05T22:15:59.928Z,45.30
2019-04-05T22:18:28.989Z,45.30
2019-04-05T22:20:58.132Z,45.30
2019-04-05T22:23:27.402Z,45.30
2019-04-05T22:25:56.466Z,45.30
2019-04-05T22:28:25.521Z,45.20
2019-04-05T22:30:55.066Z,45.20
2019-04-05T22:33:24.128Z,45.20
2019-04-05T22:35:53.172Z,45.20
2019-04-05T22:38:22.301Z,45.20
2019-04-05T22:40:51.371Z,45.10
2019-04-05T22:43:20.412Z,45.10
2019-04-05T22:45:49.585Z,45.10
2019-04-05T22:48:18.675Z,45.10
2019-04-05T22:50:48.383Z,45.10
2019-04-05T22:53:17.532Z,45.00
2019-04-05T22:55:46.649Z,45.10
2019-04-05T22:58:15.692Z,45.10
2019-04-05T23:00:44.750Z,45.10
2019-04-05T23:03:13.780Z,45.10
2019-04-05T23:05:42.836Z,45.20
2019-04-05T23:08:12.031Z,45.30
2019-04-05T23:10:41.018Z,45.30
2019-04-05T23:13:10.109Z,45.30
2019-04-05T23:15:39.207Z,45.30
2019-04-05T23:18:08.241Z,45.30
2019-04-05T23:20:37.295Z,45.30
2019-04-05T23:23:06.341Z,45.20
2019-04-05T23:25:35.326Z,45.20
2019-04-05T23:28:04.381Z,45.30
2019-04-05T23:30:33.538Z,45.20
2019-04-05T23:33:02.590Z,45.10
2019-04-05T23:35:31.637Z,45.20
2019-04-05T23:38:00.700Z,45.20
2019-04-05T23:40:29.736Z,45.10
2019-04-05T23:42:58.829Z,45.20
2019-04-05T23:45:27.887Z,45.20
2019-04-05T23:47:57.341Z,45.20
2019-04-05T23:50:26.641Z,45.20
2019-04-05T23:52:55.813Z,45.00
2019-04-05T23:55:33.109Z,45.10
2019-04-05T23:57:55.737Z,45.00
